createdAt,value
2018-04-07T00:01:15.721Z,99.90
2018-04-07T00:03:43.230Z,99.90
2018-04-07T00:06:10.783Z,99.90
2018-04-07T00:08:38.302Z,99.90
2018-04-07T00:11:07.318Z,99.90
2018-04-07T00:13:35.595Z,99.90
2018-04-07T00:16:03.886Z,99.90
2018-04-07T00:18:31.397Z,99.90
2018-04-07T00:20:58.911Z,99.90
2018-04-07T00:23:26.427Z,99.90
2018-04-07T00:25:53.934Z,99.90
2018-04-07T00:28:21.449Z,99.90
2018-04-07T00:30:49.712Z,99.90
2018-04-07T00:33:17.414Z,99.90
2018-04-07T00:35:44.910Z,99.90
2018-04-07T00:38:12.426Z,99.90
2018-04-07T00:40:39.921Z,99.90
2018-04-07T00:43:07.455Z,99.90
2018-04-07T00:45:34.953Z,99.90
2018-04-07T00:48:02.467Z,99.90
2018-04-07T00:50:29.966Z,99.90
2018-04-07T00:52:58.290Z,99.90
2018-04-07T00:55:26.558Z,99.90
2018-04-07T00:57:54.835Z,99.90
2018-04-07T01:00:23.550Z,99.90
2018-04-07T01:02:51.093Z,99.90
2018-04-07T01:05:18.589Z,99.90
2018-04-07T01:07:46.110Z,99.90
2018-04-07T01:10:13.602Z,99.90
2018-04-07T01:12:41.114Z,99.90
2018-04-07T01:15:09.373Z,99.90
2018-04-07T01:17:37.645Z,99.90
2018-04-07T01:20:05.138Z,99.90
2018-04-07T01:22:32.694Z,99.90
2018-04-07T01:25:00.184Z,99.90
2018-04-07T01:27:27.698Z,99.90
2018-04-07T01:29:55.963Z,99.90
2018-04-07T01:32:24.230Z,99.90
2018-04-07T01:34:51.747Z,99.90
2018-04-07T01:37:19.250Z,99.90
2018-04-07T01:39:47.542Z,99.90
2018-04-07T01:42:15.802Z,99.90
2018-04-07T01:44:44.123Z,99.90
2018-04-07T01:47:11.617Z,99.90
2018-04-07T01:49:39.943Z,99.90
2018-04-07T01:52:07.439Z,99.90
2018-04-07T01:54:34.961Z,99.90
2018-04-07T01:57:02.467Z,99.90
2018-04-07T01:59:29.980Z,99.90
2018-04-07T02:01:57.478Z,99.90
2018-04-07T02:04:24.994Z,99.90
2018-04-07T02:06:52.494Z,99.90
2018-04-07T02:09:20.010Z,99.90
2018-04-07T02:11:47.505Z,99.90
2018-04-07T02:14:15.024Z,99.90
2018-04-07T02:16:42.520Z,99.90
2018-04-07T02:19:10.038Z,99.90
2018-04-07T02:21:37.543Z,99.90
2018-04-07T02:24:05.158Z,99.90
2018-04-07T02:26:32.657Z,99.90
2018-04-07T02:29:00.175Z,99.90
2018-04-07T02:31:27.698Z,99.90
2018-04-07T02:33:55.978Z,99.90
2018-04-07T02:36:24.242Z,99.90
2018-04-07T02:38:51.759Z,99.90
2018-04-07T02:41:19.253Z,99.90
2018-04-07T02:43:46.771Z,99.90
2018-04-07T02:46:14.270Z,99.90
2018-04-07T02:48:41.790Z,99.90
2018-04-07T02:51:09.338Z,99.90
2018-04-07T02:53:36.850Z,99.90
2018-04-07T02:56:04.374Z,99.90
2018-04-07T02:58:31.892Z,99.90
2018-04-07T03:01:00.155Z,99.90
2018-04-07T03:03:28.459Z,99.90
2018-04-07T03:05:56.119Z,99.90
2018-04-07T03:08:23.631Z,99.90
2018-04-07T03:10:51.125Z,99.90
2018-04-07T03:13:18.646Z,99.90
2018-04-07T03:15:46.154Z,99.90
2018-04-07T03:18:13.670Z,99.90
2018-04-07T03:20:41.169Z,99.90
2018-04-07T03:23:08.681Z,99.90
2018-04-07T03:25:36.188Z,99.90
2018-04-07T03:28:03.706Z,99.90
2018-04-07T03:30:31.223Z,99.90
2018-04-07T03:32:58.729Z,99.90
2018-04-07T03:35:27.454Z,99.90
2018-04-07T03:37:54.986Z,99.90
2018-04-07T03:40:23.278Z,99.90
2018-04-07T03:42:50.773Z,99.90
2018-04-07T03:45:18.282Z,99.90
2018-04-07T03:47:46.547Z,99.90
2018-04-07T03:50:14.843Z,99.90
2018-04-07T03:52:42.402Z,99.90
2018-04-07T03:55:09.918Z,99.90
2018-04-07T03:57:37.418Z,99.90
2018-04-07T04:00:04.931Z,99.90
2018-04-07T04:02:32.431Z,99.90
2018-04-07T04:04:59.941Z,99.90
2018-04-07T04:07:27.434Z,99.90
2018-04-07T04:09:55.709Z,99.90
2018-04-07T04:12:23.979Z,99.90
2018-04-07T04:14:52.262Z,99.90
2018-04-07T04:17:20.527Z,99.90
2018-04-07T04:19:48.810Z,99.90
2018-04-07T04:22:17.079Z,99.90
2018-04-07T04:24:45.359Z,99.90
2018-04-07T04:27:13.650Z,99.90
2018-04-07T04:29:41.931Z,99.90
2018-04-07T04:32:09.422Z,99.90
2018-04-07T04:34:36.941Z,99.90
2018-04-07T04:37:05.226Z,99.90
2018-04-07T04:39:32.749Z,99.90
2018-04-07T04:42:00.250Z,99.90
2018-04-07T04:44:27.799Z,99.90
2018-04-07T04:46:55.298Z,99.90
2018-04-07T04:49:22.814Z,99.90
2018-04-07T04:51:50.373Z,99.90
2018-04-07T04:54:17.932Z,99.90
2018-04-07T04:56:45.436Z,99.90
2018-04-07T04:59:12.954Z,99.90
2018-04-07T05:01:40.506Z,99.90
2018-04-07T05:04:08.023Z,99.90
2018-04-07T05:06:35.518Z,99.90
2018-04-07T05:09:03.404Z,99.90
2018-04-07T05:11:30.941Z,99.90
2018-04-07T05:13:59.218Z,99.90
2018-04-07T05:16:26.718Z,99.90
2018-04-07T05:18:54.226Z,99.90
2018-04-07T05:21:22.490Z,99.90
2018-04-07T05:23:50.771Z,99.90
2018-04-07T05:26:19.442Z,99.90
2018-04-07T05:28:47.722Z,99.90
2018-04-07T05:31:15.999Z,99.90
2018-04-07T05:33:43.503Z,99.90
2018-04-07T05:36:11.026Z,99.90
2018-04-07T05:38:39.333Z,99.90
2018-04-07T05:41:06.863Z,99.90
2018-04-07T05:43:35.123Z,99.90
2018-04-07T05:46:02.882Z,99.90
2018-04-07T05:48:30.378Z,99.90
2018-04-07T05:50:57.895Z,99.90
2018-04-07T05:53:25.395Z,99.90
2018-04-07T05:55:52.910Z,99.90
2018-04-07T05:58:20.407Z,99.90
2018-04-07T06:00:47.926Z,99.90
2018-04-07T06:03:15.523Z,99.90
2018-04-07T06:05:43.034Z,99.90
2018-04-07T06:08:10.533Z,99.90
2018-04-07T06:10:38.819Z,99.90
2018-04-07T06:13:06.317Z,99.90
2018-04-07T06:15:33.848Z,99.90
2018-04-07T06:18:01.354Z,99.90
2018-04-07T06:20:28.870Z,99.90
2018-04-07T06:22:56.406Z,99.90
2018-04-07T06:25:23.900Z,99.90
2018-04-07T06:27:51.402Z,99.90
2018-04-07T06:30:19.682Z,99.90
2018-04-07T06:32:47.944Z,99.90
2018-04-07T06:35:16.251Z,99.90
2018-04-07T06:37:43.751Z,99.90
2018-04-07T06:40:11.261Z,99.90
2018-04-07T06:42:39.528Z,99.90
2018-04-07T06:45:07.806Z,99.90
2018-04-07T06:47:36.094Z,99.90
2018-04-07T06:50:03.612Z,99.90
2018-04-07T06:52:31.115Z,99.90
2018-04-07T06:54:58.637Z,99.90
2018-04-07T06:57:26.899Z,99.90
2018-04-07T06:59:54.419Z,99.90
2018-04-07T07:02:21.917Z,99.90
2018-04-07T07:04:49.431Z,99.90
2018-04-07T07:07:16.924Z,99.90
2018-04-07T07:09:44.433Z,99.90
2018-04-07T07:12:11.925Z,99.90
2018-04-07T07:14:39.445Z,99.90
2018-04-07T07:17:07.710Z,99.90
2018-04-07T07:19:35.985Z,99.90
2018-04-07T07:22:04.247Z,99.90
2018-04-07T07:24:31.767Z,99.90
2018-04-07T07:26:59.267Z,99.90
2018-04-07T07:29:26.767Z,99.90
2018-04-07T07:31:54.279Z,99.90
2018-04-07T07:34:22.553Z,99.90
2018-04-07T07:36:50.834Z,99.90
2018-04-07T07:39:18.334Z,99.90
2018-04-07T07:41:45.841Z,99.90
2018-04-07T07:44:13.333Z,99.90
2018-04-07T07:46:40.870Z,99.90
2018-04-07T07:49:09.141Z,99.90
2018-04-07T07:51:36.654Z,99.90
2018-04-07T07:54:04.191Z,99.90
2018-04-07T07:56:31.705Z,99.90
2018-04-07T07:58:59.982Z,99.90
2018-04-07T08:01:27.579Z,99.90
2018-04-07T08:03:55.086Z,99.90
2018-04-07T08:06:22.595Z,99.90
2018-04-07T08:08:50.149Z,99.90
2018-04-07T08:11:18.426Z,99.90
2018-04-07T08:13:45.934Z,99.90
2018-04-07T08:16:13.449Z,99.90
2018-04-07T08:18:40.950Z,99.90
2018-04-07T08:21:08.461Z,99.90
2018-04-07T08:23:35.954Z,99.90
2018-04-07T08:26:03.466Z,99.90
2018-04-07T08:28:31.759Z,99.90
2018-04-07T08:30:59.275Z,99.90
2018-04-07T08:33:26.770Z,99.90
2018-04-07T08:35:54.282Z,99.90
2018-04-07T08:38:21.777Z,99.90
2018-04-07T08:40:50.064Z,99.90
2018-04-07T08:43:17.563Z,99.90
2018-04-07T08:45:45.074Z,99.20
2018-04-07T08:48:12.665Z,98.30
2018-04-07T08:50:40.178Z,95.90
2018-04-07T08:53:08.439Z,92.50
2018-04-07T08:55:35.954Z,92.50
2018-04-07T08:58:03.447Z,90.10
2018-04-07T09:00:30.975Z,91.70
2018-04-07T09:02:58.471Z,88.50
2018-04-07T09:05:25.998Z,88.80
2018-04-07T09:07:53.518Z,83.10
2018-04-07T09:10:21.026Z,87.80
2018-04-07T09:12:48.517Z,78.50
2018-04-07T09:15:16.794Z,77.70
2018-04-07T09:17:45.054Z,76.20
2018-04-07T09:20:12.643Z,76.00
2018-04-07T09:22:40.147Z,76.30
2018-04-07T09:25:07.658Z,76.40
2018-04-07T09:27:35.931Z,73.50
2018-04-07T09:30:04.422Z,73.50
2018-04-07T09:32:31.933Z,72.40
2018-04-07T09:34:59.433Z,71.70
2018-04-07T09:37:26.994Z,68.20
2018-04-07T09:39:54.554Z,64.20
2018-04-07T09:42:22.066Z,64.80
2018-04-07T09:44:49.559Z,65.30
2018-04-07T09:47:17.950Z,61.10
2018-04-07T09:49:45.447Z,61.10
2018-04-07T09:52:12.953Z,59.50
2018-04-07T09:54:41.222Z,60.10
2018-04-07T09:57:09.507Z,57.60
2018-04-07T09:59:37.795Z,61.20
2018-04-07T10:02:05.306Z,61.20
2018-04-07T10:04:32.810Z,57.80
2018-04-07T10:07:00.326Z,57.70
2018-04-07T10:09:27.826Z,56.20
2018-04-07T10:11:55.333Z,54.00
2018-04-07T10:14:22.830Z,53.80
2018-04-07T10:16:51.119Z,52.40
2018-04-07T10:19:18.622Z,52.30
2018-04-07T10:21:46.143Z,50.00
2018-04-07T10:24:13.653Z,51.00
2018-04-07T10:26:41.171Z,48.00
2018-04-07T10:29:08.674Z,49.90
2018-04-07T10:31:36.190Z,51.10
2018-04-07T10:34:03.692Z,52.80
2018-04-07T10:36:31.209Z,50.90
2018-04-07T10:38:58.705Z,54.00
2018-04-07T10:41:26.218Z,50.20
2018-04-07T10:43:53.714Z,50.60
2018-04-07T10:46:21.225Z,49.20
2018-04-07T10:48:49.040Z,51.10
2018-04-07T10:51:16.802Z,50.40
2018-04-07T10:53:44.302Z,49.60
2018-04-07T10:56:11.823Z,47.20
2018-04-07T10:58:39.319Z,49.20
2018-04-07T11:01:06.840Z,47.00
2018-04-07T11:03:34.350Z,49.50
2018-04-07T11:06:01.866Z,48.80
2018-04-07T11:08:30.121Z,48.70
2018-04-07T11:10:57.634Z,48.50
2018-04-07T11:13:25.130Z,50.40
2018-04-07T11:15:52.642Z,46.30
2018-04-07T11:18:20.158Z,46.50
2018-04-07T11:20:47.654Z,46.10
2018-04-07T11:23:15.180Z,45.70
2018-04-07T11:25:42.684Z,44.10
2018-04-07T11:28:10.203Z,48.70
2018-04-07T11:30:38.466Z,46.70
2018-04-07T11:33:05.984Z,46.70
2018-04-07T11:35:33.478Z,49.50
2018-04-07T11:38:00.989Z,45.70
2018-04-07T11:40:28.486Z,44.10
2018-04-07T11:42:56.011Z,42.80
2018-04-07T11:45:23.506Z,46.00
2018-04-07T11:47:51.023Z,46.80
2018-04-07T11:50:18.522Z,43.40
2018-04-07T11:52:46.040Z,45.00
2018-04-07T11:55:13.534Z,46.90
2018-04-07T11:57:41.060Z,44.00
2018-04-07T12:00:08.554Z,44.10
2018-04-07T12:02:36.073Z,41.10
2018-04-07T12:05:03.581Z,43.00
2018-04-07T12:07:31.096Z,43.90
2018-04-07T12:09:58.591Z,43.20
2018-04-07T12:12:26.356Z,44.70
2018-04-07T12:14:53.861Z,42.50
2018-04-07T12:17:21.370Z,41.60
2018-04-07T12:19:48.861Z,44.70
2018-04-07T12:22:17.145Z,42.40
2018-04-07T12:24:44.721Z,42.30
2018-04-07T12:27:12.239Z,42.60
2018-04-07T12:29:40.506Z,39.60
2018-04-07T12:32:08.030Z,39.50
2018-04-07T12:34:35.535Z,40.50
2018-04-07T12:37:03.814Z,43.10
2018-04-07T12:39:32.069Z,40.70
2018-04-07T12:41:59.581Z,40.60
2018-04-07T12:44:27.078Z,42.30
2018-04-07T12:46:54.598Z,41.30
2018-04-07T12:49:22.094Z,42.50
2018-04-07T12:51:49.610Z,39.20
2018-04-07T12:54:17.106Z,40.50
2018-04-07T12:56:44.621Z,38.70
2018-04-07T12:59:12.123Z,41.30
2018-04-07T13:01:39.633Z,40.50
2018-04-07T13:04:07.146Z,40.70
2018-04-07T13:06:34.657Z,40.30
2018-04-07T13:09:02.162Z,43.50
2018-04-07T13:11:29.678Z,42.30
2018-04-07T13:13:57.174Z,42.50
2018-04-07T13:16:24.670Z,43.00
2018-04-07T13:18:52.946Z,42.20
2018-04-07T13:21:21.207Z,44.80
2018-04-07T13:23:49.487Z,47.20
2018-04-07T13:26:17.754Z,44.90
2018-04-07T13:28:46.039Z,43.10
2018-04-07T13:31:14.298Z,44.30
2018-04-07T13:33:41.818Z,44.30
2018-04-07T13:36:09.318Z,44.30
2018-04-07T13:38:36.839Z,44.70
2018-04-07T13:41:04.335Z,43.90
2018-04-07T13:43:32.619Z,44.20
2018-04-07T13:46:00.884Z,45.80
2018-04-07T13:48:28.394Z,45.80
2018-04-07T13:50:55.891Z,44.00
2018-04-07T13:53:23.402Z,46.00
2018-04-07T13:55:50.903Z,48.70
2018-04-07T13:58:18.416Z,48.00
2018-04-07T14:00:45.919Z,46.50
2018-04-07T14:03:13.434Z,43.90
2018-04-07T14:05:40.945Z,46.90
2018-04-07T14:08:08.458Z,46.70
2018-04-07T14:10:35.958Z,48.40
2018-04-07T14:13:03.478Z,49.40
2018-04-07T14:15:30.978Z,50.20
2018-04-07T14:17:58.498Z,49.40
2018-04-07T14:20:25.998Z,50.20
2018-04-07T14:22:53.516Z,47.10
2018-04-07T14:25:21.014Z,48.80
2018-04-07T14:27:48.530Z,49.70
2018-04-07T14:30:16.022Z,49.50
2018-04-07T14:32:43.534Z,50.40
2018-04-07T14:35:11.026Z,52.00
2018-04-07T14:37:38.537Z,49.80
2018-04-07T14:40:06.042Z,51.00
2018-04-07T14:42:33.549Z,50.10
2018-04-07T14:45:01.054Z,51.30
2018-04-07T14:47:28.565Z,49.80
2018-04-07T14:49:56.067Z,51.20
2018-04-07T14:52:23.586Z,52.10
2018-04-07T14:54:51.094Z,54.40
2018-04-07T14:57:18.602Z,51.20
2018-04-07T14:59:46.106Z,53.30
2018-04-07T15:02:13.622Z,53.80
2018-04-07T15:04:41.126Z,52.90
2018-04-07T15:07:08.951Z,54.50
2018-04-07T15:09:36.461Z,51.40
2018-04-07T15:12:03.962Z,53.60
2018-04-07T15:14:31.483Z,53.80
2018-04-07T15:16:58.987Z,52.80
2018-04-07T15:19:26.499Z,55.20
2018-04-07T15:21:54.002Z,55.90
2018-04-07T15:24:21.510Z,56.00
2018-04-07T15:26:49.014Z,54.70
2018-04-07T15:29:16.526Z,53.50
2018-04-07T15:31:44.034Z,51.80
2018-04-07T15:34:11.565Z,54.60
2018-04-07T15:36:39.073Z,53.40
2018-04-07T15:39:06.586Z,52.00
2018-04-07T15:41:34.419Z,54.20
2018-04-07T15:44:01.943Z,54.10
2018-04-07T15:46:29.442Z,53.80
2018-04-07T15:48:57.299Z,53.70
2018-04-07T15:51:25.058Z,53.40
2018-04-07T15:53:52.565Z,55.30
2018-04-07T15:56:20.070Z,54.40
2018-04-07T15:58:47.582Z,54.70
2018-04-07T16:01:15.090Z,55.90
2018-04-07T16:03:42.606Z,53.20
2018-04-07T16:06:10.118Z,53.50
2018-04-07T16:08:37.636Z,54.20
2018-04-07T16:11:05.134Z,56.00
2018-04-07T16:13:32.658Z,54.50
2018-04-07T16:16:00.162Z,55.30
2018-04-07T16:18:28.786Z,55.70
2018-04-07T16:20:56.281Z,55.70
2018-04-07T16:23:23.806Z,56.50
2018-04-07T16:25:51.302Z,56.80
2018-04-07T16:28:18.813Z,57.20
2018-04-07T16:30:46.315Z,56.80
2018-04-07T16:33:13.826Z,57.70
2018-04-07T16:35:41.327Z,58.00
2018-04-07T16:38:08.850Z,57.80
2018-04-07T16:40:36.350Z,57.20
2018-04-07T16:43:03.849Z,58.30
2018-04-07T16:45:31.368Z,58.80
2018-04-07T16:47:58.862Z,58.50
2018-04-07T16:50:26.377Z,60.10
2018-04-07T16:52:53.882Z,59.50
2018-04-07T16:55:21.394Z,59.60
2018-04-07T16:57:48.889Z,58.10
2018-04-07T17:00:17.175Z,59.00
2018-04-07T17:02:44.686Z,58.80
2018-04-07T17:05:12.200Z,59.60
2018-04-07T17:07:39.711Z,58.90
2018-04-07T17:10:07.230Z,60.40
2018-04-07T17:12:34.731Z,60.00
2018-04-07T17:15:02.242Z,60.30
2018-04-07T17:17:29.743Z,61.70
2018-04-07T17:19:57.259Z,60.50
2018-04-07T17:22:24.769Z,61.40
2018-04-07T17:24:53.056Z,62.40
2018-04-07T17:27:21.317Z,64.30
2018-04-07T17:29:49.228Z,64.30
2018-04-07T17:32:16.770Z,66.00
2018-04-07T17:34:44.291Z,66.50
2018-04-07T17:37:11.790Z,67.50
2018-04-07T17:39:39.310Z,67.80
2018-04-07T17:42:06.810Z,69.40
2018-04-07T17:44:34.346Z,71.00
2018-04-07T17:47:02.614Z,73.50
2018-04-07T17:49:30.890Z,77.90
2018-04-07T17:51:59.174Z,80.10
2018-04-07T17:54:27.438Z,81.90
2018-04-07T17:56:55.098Z,81.90
2018-04-07T17:59:22.599Z,81.70
2018-04-07T18:01:50.111Z,81.70
2018-04-07T18:04:17.609Z,84.40
2018-04-07T18:06:45.117Z,86.70
2018-04-07T18:09:12.613Z,89.60
2018-04-07T18:11:40.154Z,91.90
2018-04-07T18:14:08.413Z,97.70
2018-04-07T18:16:35.925Z,97.70
2018-04-07T18:19:03.839Z,99.90
2018-04-07T18:21:31.353Z,99.90
2018-04-07T18:23:58.850Z,99.90
2018-04-07T18:26:26.371Z,99.90
2018-04-07T18:28:53.875Z,99.90
2018-04-07T18:31:21.402Z,99.90
2018-04-07T18:33:48.906Z,99.90
2018-04-07T18:36:17.192Z,99.90
2018-04-07T18:38:45.458Z,99.90
2018-04-07T18:41:13.742Z,99.90
2018-04-07T18:43:42.012Z,99.90
2018-04-07T18:46:10.299Z,99.90
2018-04-07T18:48:38.566Z,99.90
2018-04-07T18:51:06.851Z,99.90
2018-04-07T18:53:35.115Z,99.90
2018-04-07T18:56:03.403Z,99.90
2018-04-07T18:58:31.669Z,99.90
2018-04-07T19:00:59.950Z,99.90
2018-04-07T19:03:28.218Z,99.90
2018-04-07T19:05:56.498Z,99.90
2018-04-07T19:08:24.758Z,99.90
2018-04-07T19:10:52.269Z,99.90
2018-04-07T19:13:19.770Z,99.90
2018-04-07T19:15:47.287Z,99.90
2018-04-07T19:18:14.826Z,99.90
2018-04-07T19:20:42.353Z,99.90
2018-04-07T19:23:09.857Z,99.90
2018-04-07T19:25:37.393Z,99.90
2018-04-07T19:28:04.889Z,99.90
2018-04-07T19:30:32.397Z,99.90
2018-04-07T19:33:00.658Z,99.90
2018-04-07T19:35:28.174Z,99.90
2018-04-07T19:37:55.675Z,99.90
2018-04-07T19:40:23.967Z,99.90
2018-04-07T19:42:52.238Z,99.90
2018-04-07T19:45:20.518Z,99.90
2018-04-07T19:47:48.782Z,99.90
2018-04-07T19:50:16.370Z,99.90
2018-04-07T19:52:43.882Z,99.90
2018-04-07T19:55:12.157Z,99.90
2018-04-07T19:57:41.178Z,99.90
2018-04-07T20:00:09.447Z,99.90
2018-04-07T20:02:37.754Z,99.90
2018-04-07T20:05:05.306Z,99.90
2018-04-07T20:07:32.826Z,99.90
2018-04-07T20:10:01.839Z,99.90
2018-04-07T20:12:30.137Z,99.90
2018-04-07T20:14:57.634Z,99.90
2018-04-07T20:17:25.149Z,99.90
2018-04-07T20:19:52.654Z,99.90
2018-04-07T20:22:20.170Z,99.90
2018-04-07T20:24:47.671Z,99.90
2018-04-07T20:27:15.191Z,99.90
2018-04-07T20:29:42.686Z,99.90
2018-04-07T20:32:10.198Z,99.90
2018-04-07T20:34:37.694Z,99.90
2018-04-07T20:37:05.202Z,99.90
2018-04-07T20:39:33.463Z,99.90
2018-04-07T20:42:13.725Z,99.90
2018-04-07T20:44:41.981Z,99.90
2018-04-07T20:47:10.998Z,99.90
2018-04-07T20:49:39.262Z,99.90
2018-04-07T20:52:06.850Z,99.90
2018-04-07T20:54:34.344Z,99.90
2018-04-07T20:57:01.859Z,99.90
2018-04-07T20:59:29.353Z,99.90
2018-04-07T21:01:56.870Z,99.90
2018-04-07T21:04:25.140Z,99.90
2018-04-07T21:06:53.420Z,99.90
2018-04-07T21:09:21.694Z,99.90
2018-04-07T21:11:49.966Z,99.90
2018-04-07T21:14:18.225Z,99.90
2018-04-07T21:16:46.538Z,99.90
2018-04-07T21:19:14.043Z,99.90
2018-04-07T21:21:41.558Z,99.90
2018-04-07T21:24:09.482Z,99.90
2018-04-07T21:26:37.759Z,99.90
2018-04-07T21:29:05.255Z,99.90
2018-04-07T21:31:32.785Z,99.90
2018-04-07T21:34:00.370Z,99.90
2018-04-07T21:36:27.930Z,99.90
2018-04-07T21:38:55.496Z,99.90
2018-04-07T21:41:23.015Z,99.90
2018-04-07T21:43:50.514Z,99.90
2018-04-07T21:46:18.031Z,99.90
2018-04-07T21:48:47.034Z,99.90
2018-04-07T21:51:14.547Z,99.90
2018-04-07T21:53:42.042Z,99.90
2018-04-07T21:56:11.172Z,99.90
2018-04-07T21:58:38.734Z,99.90
2018-04-07T22:01:06.291Z,99.90
2018-04-07T22:03:33.810Z,99.90
2018-04-07T22:06:02.074Z,99.90
2018-04-07T22:08:29.590Z,99.90
2018-04-07T22:10:57.090Z,99.90
2018-04-07T22:13:24.602Z,99.90
2018-04-07T22:15:52.157Z,99.90
2018-04-07T22:18:19.666Z,99.90
2018-04-07T22:20:47.190Z,99.90
2018-04-07T22:23:14.727Z,99.90
2018-04-07T22:25:42.226Z,99.90
2018-04-07T22:28:09.738Z,99.90
2018-04-07T22:30:38.007Z,99.90
2018-04-07T22:33:06.284Z,99.90
2018-04-07T22:35:34.549Z,99.90
2018-04-07T22:38:02.847Z,99.90
2018-04-07T22:40:30.350Z,99.90
2018-04-07T22:42:57.861Z,99.90
2018-04-07T22:45:26.117Z,99.90
2018-04-07T22:47:54.036Z,99.90
2018-04-07T22:50:21.570Z,99.90
2018-04-07T22:52:49.082Z,99.90
2018-04-07T22:55:16.580Z,99.90
2018-04-07T22:57:44.862Z,99.90
2018-04-07T23:00:12.434Z,99.90
2018-04-07T23:02:39.978Z,99.90
2018-04-07T23:05:07.479Z,99.90
2018-04-07T23:07:35.001Z,99.90
2018-04-07T23:10:02.555Z,99.90
2018-04-07T23:12:30.074Z,99.90
2018-04-07T23:14:57.573Z,99.90
2018-04-07T23:17:25.093Z,99.90
2018-04-07T23:19:53.366Z,99.90
2018-04-07T23:22:20.887Z,99.90
2018-04-07T23:24:48.427Z,99.90
2018-04-07T23:27:15.939Z,99.90
2018-04-07T23:29:44.253Z,99.90
2018-04-07T23:32:11.814Z,99.90
2018-04-07T23:34:39.306Z,99.90
2018-04-07T23:37:06.813Z,99.90
2018-04-07T23:39:35.079Z,99.90
2018-04-07T23:42:03.362Z,99.90
2018-04-07T23:44:31.658Z,99.90
2018-04-07T23:46:59.237Z,99.90
2018-04-07T23:49:26.739Z,99.90
2018-04-07T23:51:54.335Z,99.90
2018-04-07T23:54:21.830Z,99.90
2018-04-07T23:56:49.346Z,99.90
2018-04-07T23:59:16.875Z,99.90
